sensor_id;sensor_type;location;lat;lon;timestamp;P1;durP1;ratioP1;P2;durP2;ratioP2
50900;SDS011;36879;51.416;6.678;2022-11-12T00:00:59;33.00;;;15.93;;
50900;SDS011;36879;51.416;6.678;2022-11-12T00:03:25;14.57;;;7.45;;
50900;SDS011;36879;51.416;6.678;2022-11-12T00:05:51;29.65;;;12.68;;
50900;SDS011;36879;51.416;6.678;2022-11-12T00:08:18;26.63;;;12.48;;
50900;SDS011;36879;51.416;6.678;2022-11-12T00:10:44;40.80;;;15.05;;
50900;SDS011;36879;51.416;6.678;2022-11-12T00:13:10;16.63;;;7.28;;
50900;SDS011;36879;51.416;6.678;2022-11-12T00:15:36;23.17;;;8.60;;
50900;SDS011;36879;51.416;6.678;2022-11-12T00:18:02;13.18;;;6.53;;
50900;SDS011;36879;51.416;6.678;2022-11-12T00:20:28;10.50;;;6.03;;
50900;SDS011;36879;51.416;6.678;2022-11-12T00:22:54;11.02;;;5.93;;
50900;SDS011;36879;51.416;6.678;2022-11-12T00:25:20;12.82;;;5.70;;
50900;SDS011;36879;51.416;6.678;2022-11-12T00:27:46;15.80;;;8.05;;
50900;SDS011;36879;51.416;6.678;2022-11-12T00:30:12;22.73;;;10.40;;
50900;SDS011;36879;51.416;6.678;2022-11-12T00:32:38;18.15;;;8.90;;
50900;SDS011;36879;51.416;6.678;2022-11-12T00:35:04;27.27;;;11.98;;
50900;SDS011;36879;51.416;6.678;2022-11-12T00:37:30;22.48;;;9.10;;
50900;SDS011;36879;51.416;6.678;2022-11-12T00:39:56;14.90;;;7.55;;
50900;SDS011;36879;51.416;6.678;2022-11-12T00:42:22;19.70;;;8.43;;
50900;SDS011;36879;51.416;6.678;2022-11-12T00:44:48;16.80;;;8.48;;
50900;SDS011;36879;51.416;6.678;2022-11-12T00:47:15;13.45;;;8.07;;
50900;SDS011;36879;51.416;6.678;2022-11-12T00:49:41;12.70;;;8.02;;
50900;SDS011;36879;51.416;6.678;2022-11-12T00:52:07;14.38;;;7.72;;
50900;SDS011;36879;51.416;6.678;2022-11-12T00:54:33;25.67;;;10.38;;
50900;SDS011;36879;51.416;6.678;2022-11-12T00:56:59;19.50;;;9.23;;
50900;SDS011;36879;51.416;6.678;2022-11-12T00:59:25;29.63;;;11.93;;
50900;SDS011;36879;51.416;6.678;2022-11-12T01:01:51;18.75;;;8.57;;
50900;SDS011;36879;51.416;6.678;2022-11-12T01:04:17;21.88;;;9.43;;
50900;SDS011;36879;51.416;6.678;2022-11-12T01:06:43;21.35;;;10.55;;
50900;SDS011;36879;51.416;6.678;2022-11-12T01:09:09;27.10;;;15.35;;
50900;SDS011;36879;51.416;6.678;2022-11-12T01:11:35;26.92;;;12.27;;
50900;SDS011;36879;51.416;6.678;2022-11-12T01:14:02;19.65;;;9.40;;
50900;SDS011;36879;51.416;6.678;2022-11-12T01:16:30;28.85;;;14.25;;
50900;SDS011;36879;51.416;6.678;2022-11-12T01:18:57;17.10;;;8.90;;
50900;SDS011;36879;51.416;6.678;2022-11-12T01:21:26;22.33;;;9.98;;
50900;SDS011;36879;51.416;6.678;2022-11-12T01:23:52;13.27;;;7.40;;
50900;SDS011;36879;51.416;6.678;2022-11-12T01:26:20;17.33;;;9.98;;
50900;SDS011;36879;51.416;6.678;2022-11-12T01:28:46;15.88;;;8.85;;
50900;SDS011;36879;51.416;6.678;2022-11-12T01:33:42;15.73;;;8.20;;
50900;SDS011;36879;51.416;6.678;2022-11-12T01:36:09;15.55;;;8.40;;
50900;SDS011;36879;51.416;6.678;2022-11-12T01:38:36;14.68;;;8.82;;
50900;SDS011;36879;51.416;6.678;2022-11-12T01:41:02;12.48;;;8.05;;
50900;SDS011;36879;51.416;6.678;2022-11-12T01:43:28;14.82;;;7.72;;
50900;SDS011;36879;51.416;6.678;2022-11-12T01:45:54;15.93;;;8.75;;
50900;SDS011;36879;51.416;6.678;2022-11-12T01:48:24;13.73;;;7.25;;
50900;SDS011;36879;51.416;6.678;2022-11-12T01:50:51;14.32;;;7.65;;
50900;SDS011;36879;51.416;6.678;2022-11-12T01:53:17;16.10;;;8.23;;
50900;SDS011;36879;51.416;6.678;2022-11-12T01:55:44;14.32;;;7.75;;
50900;SDS011;36879;51.416;6.678;2022-11-12T01:58:11;13.30;;;7.72;;
50900;SDS011;36879;51.416;6.678;2022-11-12T02:00:39;18.40;;;7.22;;
50900;SDS011;36879;51.416;6.678;2022-11-12T02:03:06;13.98;;;7.60;;
50900;SDS011;36879;51.416;6.678;2022-11-12T02:05:35;12.80;;;7.25;;
50900;SDS011;36879;51.416;6.678;2022-11-12T02:08:02;17.98;;;8.43;;
50900;SDS011;36879;51.416;6.678;2022-11-12T02:10:29;12.10;;;7.38;;
50900;SDS011;36879;51.416;6.678;2022-11-12T02:12:55;15.02;;;7.55;;
50900;SDS011;36879;51.416;6.678;2022-11-12T02:15:40;24.23;;;9.85;;
50900;SDS011;36879;51.416;6.678;2022-11-12T02:18:06;20.52;;;8.68;;
50900;SDS011;36879;51.416;6.678;2022-11-12T02:20:36;11.85;;;6.90;;
50900;SDS011;36879;51.416;6.678;2022-11-12T02:23:03;15.63;;;9.20;;
50900;SDS011;36879;51.416;6.678;2022-11-12T02:25:29;20.70;;;9.10;;
50900;SDS011;36879;51.416;6.678;2022-11-12T02:27:55;24.85;;;10.32;;
50900;SDS011;36879;51.416;6.678;2022-11-12T02:30:42;19.65;;;10.15;;
50900;SDS011;36879;51.416;6.678;2022-11-12T02:33:08;21.07;;;8.73;;
50900;SDS011;36879;51.416;6.678;2022-11-12T02:35:34;24.08;;;11.10;;
50900;SDS011;36879;51.416;6.678;2022-11-12T02:38:01;16.33;;;7.95;;
50900;SDS011;36879;51.416;6.678;2022-11-12T02:40:27;16.50;;;8.65;;
50900;SDS011;36879;51.416;6.678;2022-11-12T02:42:53;14.45;;;7.55;;
50900;SDS011;36879;51.416;6.678;2022-11-12T02:45:19;14.60;;;8.32;;
50900;SDS011;36879;51.416;6.678;2022-11-12T02:47:45;16.90;;;8.23;;
50900;SDS011;36879;51.416;6.678;2022-11-12T02:50:11;12.15;;;7.60;;
50900;SDS011;36879;51.416;6.678;2022-11-12T02:52:37;11.73;;;7.32;;
50900;SDS011;36879;51.416;6.678;2022-11-12T02:55:07;15.93;;;8.55;;
50900;SDS011;36879;51.416;6.678;2022-11-12T02:57:33;14.70;;;8.27;;
50900;SDS011;36879;51.416;6.678;2022-11-12T02:59:59;14.10;;;7.95;;
50900;SDS011;36879;51.416;6.678;2022-11-12T03:02:25;11.77;;;7.07;;
50900;SDS011;36879;51.416;6.678;2022-11-12T03:04:51;12.90;;;7.35;;
50900;SDS011;36879;51.416;6.678;2022-11-12T03:07:17;13.68;;;8.38;;
50900;SDS011;36879;51.416;6.678;2022-11-12T03:09:43;11.00;;;7.28;;
50900;SDS011;36879;51.416;6.678;2022-11-12T03:12:09;11.13;;;6.55;;
50900;SDS011;36879;51.416;6.678;2022-11-12T03:14:35;12.10;;;6.95;;
50900;SDS011;36879;51.416;6.678;2022-11-12T03:17:01;13.13;;;6.80;;
50900;SDS011;36879;51.416;6.678;2022-11-12T03:19:28;11.55;;;6.22;;
50900;SDS011;36879;51.416;6.678;2022-11-12T03:21:53;11.63;;;7.85;;
50900;SDS011;36879;51.416;6.678;2022-11-12T03:24:19;16.13;;;8.23;;
50900;SDS011;36879;51.416;6.678;2022-11-12T03:26:45;11.73;;;6.78;;
50900;SDS011;36879;51.416;6.678;2022-11-12T03:29:11;10.82;;;6.22;;
50900;SDS011;36879;51.416;6.678;2022-11-12T03:31:37;9.88;;;7.20;;
50900;SDS011;36879;51.416;6.678;2022-11-12T03:34:03;18.80;;;8.25;;
50900;SDS011;36879;51.416;6.678;2022-11-12T03:36:29;14.60;;;7.15;;
50900;SDS011;36879;51.416;6.678;2022-11-12T03:38:56;11.13;;;6.57;;
50900;SDS011;36879;51.416;6.678;2022-11-12T03:41:21;15.05;;;7.32;;
50900;SDS011;36879;51.416;6.678;2022-11-12T03:43:47;12.93;;;7.28;;
50900;SDS011;36879;51.416;6.678;2022-11-12T03:46:13;13.63;;;6.82;;
50900;SDS011;36879;51.416;6.678;2022-11-12T03:48:39;14.30;;;6.88;;
50900;SDS011;36879;51.416;6.678;2022-11-12T03:51:05;10.65;;;6.80;;
50900;SDS011;36879;51.416;6.678;2022-11-12T03:53:31;11.23;;;6.18;;
50900;SDS011;36879;51.416;6.678;2022-11-12T03:55:57;11.07;;;5.47;;
50900;SDS011;36879;51.416;6.678;2022-11-12T03:58:23;11.05;;;6.15;;
50900;SDS011;36879;51.416;6.678;2022-11-12T04:00:49;9.57;;;6.35;;
50900;SDS011;36879;51.416;6.678;2022-11-12T04:03:15;10.70;;;6.85;;
50900;SDS011;36879;51.416;6.678;2022-11-12T04:05:41;11.80;;;5.93;;
50900;SDS011;36879;51.416;6.678;2022-11-12T04:08:25;12.75;;;6.78;;
50900;SDS011;36879;51.416;6.678;2022-11-12T04:11:10;10.48;;;5.97;;
50900;SDS011;36879;51.416;6.678;2022-11-12T04:13:37;8.00;;;5.18;;
50900;SDS011;36879;51.416;6.678;2022-11-12T04:18:49;14.85;;;5.93;;
50900;SDS011;36879;51.416;6.678;2022-11-12T04:21:38;10.82;;;5.28;;
50900;SDS011;36879;51.416;6.678;2022-11-12T04:24:15;8.77;;;5.30;;
50900;SDS011;36879;51.416;6.678;2022-11-12T04:26:59;9.50;;;5.43;;
50900;SDS011;36879;51.416;6.678;2022-11-12T04:29:25;9.77;;;6.38;;
50900;SDS011;36879;51.416;6.678;2022-11-12T04:32:10;10.70;;;5.20;;
50900;SDS011;36879;51.416;6.678;2022-11-12T04:34:36;8.57;;;4.60;;
50900;SDS011;36879;51.416;6.678;2022-11-12T04:37:03;10.73;;;4.63;;
50900;SDS011;36879;51.416;6.678;2022-11-12T04:39:29;5.28;;;4.25;;
50900;SDS011;36879;51.416;6.678;2022-11-12T04:41:55;8.25;;;4.82;;
50900;SDS011;36879;51.416;6.678;2022-11-12T04:44:40;8.90;;;4.35;;
50900;SDS011;36879;51.416;6.678;2022-11-12T04:47:29;7.15;;;5.00;;
50900;SDS011;36879;51.416;6.678;2022-11-12T04:49:55;7.68;;;3.67;;
50900;SDS011;36879;51.416;6.678;2022-11-12T04:52:22;11.60;;;4.38;;
50900;SDS011;36879;51.416;6.678;2022-11-12T04:54:48;12.20;;;4.75;;
50900;SDS011;36879;51.416;6.678;2022-11-12T04:57:14;9.35;;;4.95;;
50900;SDS011;36879;51.416;6.678;2022-11-12T04:59:40;8.98;;;5.00;;
50900;SDS011;36879;51.416;6.678;2022-11-12T05:02:06;8.50;;;3.70;;
50900;SDS011;36879;51.416;6.678;2022-11-12T05:04:32;6.75;;;4.65;;
50900;SDS011;36879;51.416;6.678;2022-11-12T05:06:58;7.65;;;4.53;;
50900;SDS011;36879;51.416;6.678;2022-11-12T05:09:24;8.05;;;4.03;;
50900;SDS011;36879;51.416;6.678;2022-11-12T05:11:51;9.27;;;4.32;;
50900;SDS011;36879;51.416;6.678;2022-11-12T05:14:17;9.18;;;4.53;;
50900;SDS011;36879;51.416;6.678;2022-11-12T05:16:43;9.18;;;4.05;;
50900;SDS011;36879;51.416;6.678;2022-11-12T05:19:09;7.05;;;4.30;;
50900;SDS011;36879;51.416;6.678;2022-11-12T05:21:35;6.90;;;4.45;;
50900;SDS011;36879;51.416;6.678;2022-11-12T05:24:20;8.20;;;3.75;;
50900;SDS011;36879;51.416;6.678;2022-11-12T05:26:46;8.00;;;4.65;;
50900;SDS011;36879;51.416;6.678;2022-11-12T05:29:13;8.27;;;3.38;;
50900;SDS011;36879;51.416;6.678;2022-11-12T05:31:39;6.43;;;4.25;;
50900;SDS011;36879;51.416;6.678;2022-11-12T05:34:05;7.53;;;4.80;;
50900;SDS011;36879;51.416;6.678;2022-11-12T05:36:31;6.82;;;3.38;;
50900;SDS011;36879;51.416;6.678;2022-11-12T05:38:58;6.25;;;3.83;;
50900;SDS011;36879;51.416;6.678;2022-11-12T05:41:24;6.47;;;4.35;;
50900;SDS011;36879;51.416;6.678;2022-11-12T05:43:50;7.93;;;3.90;;
50900;SDS011;36879;51.416;6.678;2022-11-12T05:46:16;4.97;;;3.35;;
50900;SDS011;36879;51.416;6.678;2022-11-12T05:48:42;5.47;;;4.25;;
50900;SDS011;36879;51.416;6.678;2022-11-12T05:51:08;7.45;;;4.10;;
50900;SDS011;36879;51.416;6.678;2022-11-12T05:53:34;6.20;;;4.05;;
50900;SDS011;36879;51.416;6.678;2022-11-12T05:56:03;7.53;;;4.28;;
50900;SDS011;36879;51.416;6.678;2022-11-12T05:58:30;9.60;;;4.93;;
50900;SDS011;36879;51.416;6.678;2022-11-12T06:00:56;6.72;;;3.90;;
50900;SDS011;36879;51.416;6.678;2022-11-12T06:03:22;6.78;;;4.20;;
50900;SDS011;36879;51.416;6.678;2022-11-12T06:05:48;8.30;;;4.25;;
50900;SDS011;36879;51.416;6.678;2022-11-12T06:08:14;8.75;;;5.20;;
50900;SDS011;36879;51.416;6.678;2022-11-12T06:10:40;6.93;;;4.30;;
50900;SDS011;36879;51.416;6.678;2022-11-12T06:13:06;8.60;;;4.60;;
50900;SDS011;36879;51.416;6.678;2022-11-12T06:15:32;9.35;;;4.30;;
50900;SDS011;36879;51.416;6.678;2022-11-12T06:17:59;9.27;;;4.97;;
50900;SDS011;36879;51.416;6.678;2022-11-12T06:20:25;7.50;;;4.85;;
50900;SDS011;36879;51.416;6.678;2022-11-12T06:22:51;8.20;;;5.18;;
50900;SDS011;36879;51.416;6.678;2022-11-12T06:25:17;8.00;;;4.43;;
50900;SDS011;36879;51.416;6.678;2022-11-12T06:27:43;5.82;;;4.47;;
50900;SDS011;36879;51.416;6.678;2022-11-12T06:30:09;11.80;;;5.40;;
50900;SDS011;36879;51.416;6.678;2022-11-12T06:32:35;8.25;;;5.07;;
50900;SDS011;36879;51.416;6.678;2022-11-12T06:35:01;9.15;;;5.15;;
50900;SDS011;36879;51.416;6.678;2022-11-12T06:37:27;8.98;;;5.00;;
50900;SDS011;36879;51.416;6.678;2022-11-12T06:39:53;8.93;;;5.10;;
50900;SDS011;36879;51.416;6.678;2022-11-12T06:42:19;8.27;;;5.35;;
50900;SDS011;36879;51.416;6.678;2022-11-12T06:44:45;9.00;;;5.18;;
50900;SDS011;36879;51.416;6.678;2022-11-12T06:47:11;9.55;;;5.93;;
50900;SDS011;36879;51.416;6.678;2022-11-12T06:49:37;8.57;;;5.13;;
50900;SDS011;36879;51.416;6.678;2022-11-12T06:52:03;10.65;;;5.18;;
50900;SDS011;36879;51.416;6.678;2022-11-12T06:54:29;10.15;;;6.10;;
50900;SDS011;36879;51.416;6.678;2022-11-12T06:56:55;11.50;;;5.88;;
50900;SDS011;36879;51.416;6.678;2022-11-12T06:59:21;10.10;;;4.70;;
50900;SDS011;36879;51.416;6.678;2022-11-12T07:01:46;7.60;;;5.25;;
50900;SDS011;36879;51.416;6.678;2022-11-12T07:04:12;10.07;;;5.70;;
50900;SDS011;36879;51.416;6.678;2022-11-12T07:06:38;9.82;;;6.30;;
50900;SDS011;36879;51.416;6.678;2022-11-12T07:09:04;9.68;;;6.13;;
50900;SDS011;36879;51.416;6.678;2022-11-12T07:11:30;10.50;;;6.80;;
50900;SDS011;36879;51.416;6.678;2022-11-12T07:13:56;13.45;;;6.63;;
50900;SDS011;36879;51.416;6.678;2022-11-12T07:16:23;11.73;;;6.78;;
50900;SDS011;36879;51.416;6.678;2022-11-12T07:18:49;12.55;;;6.53;;
50900;SDS011;36879;51.416;6.678;2022-11-12T07:21:16;13.50;;;6.90;;
50900;SDS011;36879;51.416;6.678;2022-11-12T07:23:42;11.40;;;7.25;;
50900;SDS011;36879;51.416;6.678;2022-11-12T07:26:13;9.98;;;6.78;;
50900;SDS011;36879;51.416;6.678;2022-11-12T07:28:39;10.15;;;6.38;;
50900;SDS011;36879;51.416;6.678;2022-11-12T07:31:09;11.15;;;6.20;;
50900;SDS011;36879;51.416;6.678;2022-11-12T07:33:35;10.65;;;6.60;;
50900;SDS011;36879;51.416;6.678;2022-11-12T07:38:28;12.38;;;5.47;;
50900;SDS011;36879;51.416;6.678;2022-11-12T07:40:57;16.33;;;5.55;;
50900;SDS011;36879;51.416;6.678;2022-11-12T07:43:24;9.35;;;5.88;;
50900;SDS011;36879;51.416;6.678;2022-11-12T07:45:50;9.52;;;5.90;;
50900;SDS011;36879;51.416;6.678;2022-11-12T07:48:16;9.05;;;5.95;;
50900;SDS011;36879;51.416;6.678;2022-11-12T07:50:42;8.70;;;5.18;;
50900;SDS011;36879;51.416;6.678;2022-11-12T07:53:08;11.32;;;5.60;;
50900;SDS011;36879;51.416;6.678;2022-11-12T07:55:34;8.68;;;5.72;;
50900;SDS011;36879;51.416;6.678;2022-11-12T07:58:00;10.90;;;6.20;;
50900;SDS011;36879;51.416;6.678;2022-11-12T08:00:26;11.48;;;5.38;;
50900;SDS011;36879;51.416;6.678;2022-11-12T08:02:52;9.73;;;5.47;;
50900;SDS011;36879;51.416;6.678;2022-11-12T08:05:18;9.20;;;5.20;;
50900;SDS011;36879;51.416;6.678;2022-11-12T08:07:44;11.65;;;5.28;;
50900;SDS011;36879;51.416;6.678;2022-11-12T08:10:10;10.15;;;5.40;;
50900;SDS011;36879;51.416;6.678;2022-11-12T08:12:35;17.38;;;9.35;;
50900;SDS011;36879;51.416;6.678;2022-11-12T08:15:01;18.40;;;9.02;;
50900;SDS011;36879;51.416;6.678;2022-11-12T08:17:27;21.08;;;10.18;;
50900;SDS011;36879;51.416;6.678;2022-11-12T08:19:53;22.90;;;9.80;;
50900;SDS011;36879;51.416;6.678;2022-11-12T08:22:20;15.95;;;8.13;;
50900;SDS011;36879;51.416;6.678;2022-11-12T08:24:46;10.85;;;6.28;;
50900;SDS011;36879;51.416;6.678;2022-11-12T08:27:12;9.75;;;5.93;;
50900;SDS011;36879;51.416;6.678;2022-11-12T08:29:38;12.05;;;5.82;;
50900;SDS011;36879;51.416;6.678;2022-11-12T08:32:04;10.43;;;5.65;;
50900;SDS011;36879;51.416;6.678;2022-11-12T08:34:30;11.57;;;6.18;;
50900;SDS011;36879;51.416;6.678;2022-11-12T08:36:56;13.65;;;6.00;;
50900;SDS011;36879;51.416;6.678;2022-11-12T08:39:22;16.35;;;5.90;;
50900;SDS011;36879;51.416;6.678;2022-11-12T08:41:48;10.80;;;4.85;;
50900;SDS011;36879;51.416;6.678;2022-11-12T08:44:14;12.35;;;5.50;;
50900;SDS011;36879;51.416;6.678;2022-11-12T08:46:40;8.48;;;5.22;;
50900;SDS011;36879;51.416;6.678;2022-11-12T08:49:06;10.82;;;5.70;;
50900;SDS011;36879;51.416;6.678;2022-11-12T08:51:32;9.13;;;5.25;;
50900;SDS011;36879;51.416;6.678;2022-11-12T08:53:58;10.48;;;4.80;;
50900;SDS011;36879;51.416;6.678;2022-11-12T08:56:23;7.00;;;3.88;;
50900;SDS011;36879;51.416;6.678;2022-11-12T08:58:49;7.90;;;3.90;;
50900;SDS011;36879;51.416;6.678;2022-11-12T09:01:15;8.00;;;4.88;;
50900;SDS011;36879;51.416;6.678;2022-11-12T09:03:41;7.50;;;3.63;;
50900;SDS011;36879;51.416;6.678;2022-11-12T09:06:07;6.03;;;3.70;;
50900;SDS011;36879;51.416;6.678;2022-11-12T09:08:34;6.97;;;3.65;;
50900;SDS011;36879;51.416;6.678;2022-11-12T09:11:00;6.93;;;3.55;;
50900;SDS011;36879;51.416;6.678;2022-11-12T09:13:26;8.38;;;4.05;;
50900;SDS011;36879;51.416;6.678;2022-11-12T09:15:52;5.63;;;3.65;;
50900;SDS011;36879;51.416;6.678;2022-11-12T09:18:21;5.85;;;3.25;;
50900;SDS011;36879;51.416;6.678;2022-11-12T09:20:46;4.82;;;2.65;;
50900;SDS011;36879;51.416;6.678;2022-11-12T09:23:15;6.05;;;3.35;;
50900;SDS011;36879;51.416;6.678;2022-11-12T09:25:44;5.95;;;3.58;;
50900;SDS011;36879;51.416;6.678;2022-11-12T09:28:14;4.53;;;3.33;;
50900;SDS011;36879;51.416;6.678;2022-11-12T09:30:44;6.53;;;3.30;;
50900;SDS011;36879;51.416;6.678;2022-11-12T09:33:11;6.05;;;3.65;;
50900;SDS011;36879;51.416;6.678;2022-11-12T09:35:38;5.05;;;3.05;;
50900;SDS011;36879;51.416;6.678;2022-11-12T09:38:04;4.60;;;2.95;;
50900;SDS011;36879;51.416;6.678;2022-11-12T09:43:23;5.03;;;2.78;;
50900;SDS011;36879;51.416;6.678;2022-11-12T09:45:51;5.82;;;3.03;;
50900;SDS011;36879;51.416;6.678;2022-11-12T09:48:28;4.00;;;2.25;;
50900;SDS011;36879;51.416;6.678;2022-11-12T09:50:59;6.45;;;3.13;;
50900;SDS011;36879;51.416;6.678;2022-11-12T09:55:51;5.03;;;3.42;;
50900;SDS011;36879;51.416;6.678;2022-11-12T09:58:18;9.63;;;3.47;;
50900;SDS011;36879;51.416;6.678;2022-11-12T10:00:58;10.15;;;4.30;;
50900;SDS011;36879;51.416;6.678;2022-11-12T10:03:44;7.63;;;3.92;;
50900;SDS011;36879;51.416;6.678;2022-11-12T10:06:14;7.55;;;4.68;;
50900;SDS011;36879;51.416;6.678;2022-11-12T10:19:52;9.70;;;4.50;;
50900;SDS011;36879;51.416;6.678;2022-11-12T10:24:56;4.80;;;3.05;;
50900;SDS011;36879;51.416;6.678;2022-11-12T10:27:26;6.60;;;3.13;;
50900;SDS011;36879;51.416;6.678;2022-11-12T10:30:06;8.55;;;2.90;;
50900;SDS011;36879;51.416;6.678;2022-11-12T10:32:32;7.38;;;2.78;;
50900;SDS011;36879;51.416;6.678;2022-11-12T10:34:59;6.80;;;3.22;;
50900;SDS011;36879;51.416;6.678;2022-11-12T10:37:30;7.25;;;2.83;;
50900;SDS011;36879;51.416;6.678;2022-11-12T10:40:00;5.63;;;2.67;;
50900;SDS011;36879;51.416;6.678;2022-11-12T10:45:21;4.83;;;2.63;;
50900;SDS011;36879;51.416;6.678;2022-11-12T10:47:48;3.08;;;2.13;;
50900;SDS011;36879;51.416;6.678;2022-11-12T10:50:19;5.10;;;2.70;;
50900;SDS011;36879;51.416;6.678;2022-11-12T10:52:53;6.63;;;2.58;;
50900;SDS011;36879;51.416;6.678;2022-11-12T10:55:20;4.60;;;2.25;;
50900;SDS011;36879;51.416;6.678;2022-11-12T10:58:00;5.57;;;3.05;;
50900;SDS011;36879;51.416;6.678;2022-11-12T11:00:27;9.18;;;2.85;;
50900;SDS011;36879;51.416;6.678;2022-11-12T11:02:53;4.80;;;2.67;;
50900;SDS011;36879;51.416;6.678;2022-11-12T11:05:30;6.00;;;2.83;;
50900;SDS011;36879;51.416;6.678;2022-11-12T11:07:56;6.60;;;3.47;;
50900;SDS011;36879;51.416;6.678;2022-11-12T11:12:48;6.03;;;3.45;;
50900;SDS011;36879;51.416;6.678;2022-11-12T11:17:45;7.10;;;3.33;;
50900;SDS011;36879;51.416;6.678;2022-11-12T11:22:44;6.18;;;3.22;;
50900;SDS011;36879;51.416;6.678;2022-11-12T11:25:17;4.22;;;2.38;;
50900;SDS011;36879;51.416;6.678;2022-11-12T11:30:13;4.63;;;2.95;;
50900;SDS011;36879;51.416;6.678;2022-11-12T11:32:46;6.45;;;2.90;;
50900;SDS011;36879;51.416;6.678;2022-11-12T11:35:38;5.38;;;3.00;;
50900;SDS011;36879;51.416;6.678;2022-11-12T11:40:40;4.82;;;3.10;;
50900;SDS011;36879;51.416;6.678;2022-11-12T11:50:38;17.17;;;8.13;;
50900;SDS011;36879;51.416;6.678;2022-11-12T11:55:53;8.43;;;4.38;;
50900;SDS011;36879;51.416;6.678;2022-11-12T11:58:26;6.85;;;3.92;;
50900;SDS011;36879;51.416;6.678;2022-11-12T12:00:58;12.07;;;4.90;;
50900;SDS011;36879;51.416;6.678;2022-11-12T12:21:32;10.50;;;4.68;;
50900;SDS011;36879;51.416;6.678;2022-11-12T12:24:09;6.38;;;3.35;;
50900;SDS011;36879;51.416;6.678;2022-11-12T12:29:45;6.38;;;3.20;;
50900;SDS011;36879;51.416;6.678;2022-11-12T12:34:44;8.07;;;4.00;;
50900;SDS011;36879;51.416;6.678;2022-11-12T12:37:13;9.88;;;4.65;;
50900;SDS011;36879;51.416;6.678;2022-11-12T12:44:50;11.07;;;5.00;;
50900;SDS011;36879;51.416;6.678;2022-11-12T12:47:30;6.57;;;3.45;;
50900;SDS011;36879;51.416;6.678;2022-11-12T12:49:58;7.13;;;3.85;;
50900;SDS011;36879;51.416;6.678;2022-11-12T12:52:25;7.18;;;3.25;;
50900;SDS011;36879;51.416;6.678;2022-11-12T12:57:34;5.80;;;2.60;;
50900;SDS011;36879;51.416;6.678;2022-11-12T13:02:45;3.38;;;2.13;;
50900;SDS011;36879;51.416;6.678;2022-11-12T13:05:22;5.45;;;2.80;;
50900;SDS011;36879;51.416;6.678;2022-11-12T13:07:49;3.78;;;2.50;;
50900;SDS011;36879;51.416;6.678;2022-11-12T13:13:01;4.15;;;2.55;;
50900;SDS011;36879;51.416;6.678;2022-11-12T13:15:41;5.97;;;2.85;;
50900;SDS011;36879;51.416;6.678;2022-11-12T13:18:07;7.93;;;2.47;;
50900;SDS011;36879;51.416;6.678;2022-11-12T13:20:41;4.93;;;2.85;;
50900;SDS011;36879;51.416;6.678;2022-11-12T13:23:08;5.57;;;2.47;;
50900;SDS011;36879;51.416;6.678;2022-11-12T13:25:34;5.28;;;2.67;;
50900;SDS011;36879;51.416;6.678;2022-11-12T13:32:53;5.13;;;2.58;;
50900;SDS011;36879;51.416;6.678;2022-11-12T13:35:35;4.65;;;2.33;;
50900;SDS011;36879;51.416;6.678;2022-11-12T13:41:12;5.55;;;2.25;;
50900;SDS011;36879;51.416;6.678;2022-11-12T13:43:33;5.80;;;2.58;;
50900;SDS011;36879;51.416;6.678;2022-11-12T13:48:40;5.80;;;2.58;;
50900;SDS011;36879;51.416;6.678;2022-11-12T13:51:22;4.15;;;2.35;;
50900;SDS011;36879;51.416;6.678;2022-11-12T13:53:51;5.90;;;2.65;;
50900;SDS011;36879;51.416;6.678;2022-11-12T13:59:15;3.47;;;2.13;;
50900;SDS011;36879;51.416;6.678;2022-11-12T14:01:42;4.80;;;2.20;;
50900;SDS011;36879;51.416;6.678;2022-11-12T14:04:41;9.80;;;2.33;;
50900;SDS011;36879;51.416;6.678;2022-11-12T14:07:07;3.63;;;2.22;;
50900;SDS011;36879;51.416;6.678;2022-11-12T14:09:46;4.00;;;2.50;;
50900;SDS011;36879;51.416;6.678;2022-11-12T14:17:18;3.70;;;2.05;;
50900;SDS011;36879;51.416;6.678;2022-11-12T14:20:02;4.35;;;2.28;;
50900;SDS011;36879;51.416;6.678;2022-11-12T14:22:37;5.00;;;3.05;;
50900;SDS011;36879;51.416;6.678;2022-11-12T14:25:09;4.70;;;2.30;;
50900;SDS011;36879;51.416;6.678;2022-11-12T14:27:36;2.97;;;2.08;;
50900;SDS011;36879;51.416;6.678;2022-11-12T14:32:35;4.35;;;2.38;;
50900;SDS011;36879;51.416;6.678;2022-11-12T14:38:18;6.53;;;2.80;;
50900;SDS011;36879;51.416;6.678;2022-11-12T14:40:45;5.32;;;2.72;;
50900;SDS011;36879;51.416;6.678;2022-11-12T14:43:55;4.60;;;2.58;;
50900;SDS011;36879;51.416;6.678;2022-11-12T14:46:02;4.93;;;2.50;;
50900;SDS011;36879;51.416;6.678;2022-11-12T14:48:30;7.55;;;2.60;;
50900;SDS011;36879;51.416;6.678;2022-11-12T14:51:03;5.75;;;3.05;;
50900;SDS011;36879;51.416;6.678;2022-11-12T14:54:17;4.30;;;2.38;;
50900;SDS011;36879;51.416;6.678;2022-11-12T14:56:25;3.90;;;2.17;;
50900;SDS011;36879;51.416;6.678;2022-11-12T14:58:52;5.13;;;2.53;;
50900;SDS011;36879;51.416;6.678;2022-11-12T15:01:26;4.90;;;2.67;;
50900;SDS011;36879;51.416;6.678;2022-11-12T15:04:02;6.85;;;3.17;;
50900;SDS011;36879;51.416;6.678;2022-11-12T15:08:55;13.10;;;6.80;;
50900;SDS011;36879;51.416;6.678;2022-11-12T15:11:23;16.77;;;8.30;;
50900;SDS011;36879;51.416;6.678;2022-11-12T15:13:51;15.05;;;7.22;;
50900;SDS011;36879;51.416;6.678;2022-11-12T15:16:25;11.02;;;5.50;;
50900;SDS011;36879;51.416;6.678;2022-11-12T15:19:02;9.02;;;4.70;;
50900;SDS011;36879;51.416;6.678;2022-11-12T15:21:29;10.25;;;4.97;;
50900;SDS011;36879;51.416;6.678;2022-11-12T15:24:00;6.93;;;4.05;;
50900;SDS011;36879;51.416;6.678;2022-11-12T15:29:01;7.35;;;4.57;;
50900;SDS011;36879;51.416;6.678;2022-11-12T15:31:28;7.43;;;4.28;;
50900;SDS011;36879;51.416;6.678;2022-11-12T15:33:54;9.23;;;4.65;;
50900;SDS011;36879;51.416;6.678;2022-11-12T15:36:40;9.52;;;4.88;;
50900;SDS011;36879;51.416;6.678;2022-11-12T15:39:10;10.27;;;4.95;;
50900;SDS011;36879;51.416;6.678;2022-11-12T15:41:36;9.60;;;5.53;;
50900;SDS011;36879;51.416;6.678;2022-11-12T15:44:03;14.98;;;7.75;;
50900;SDS011;36879;51.416;6.678;2022-11-12T15:46:30;12.10;;;6.30;;
50900;SDS011;36879;51.416;6.678;2022-11-12T15:48:56;21.17;;;8.23;;
50900;SDS011;36879;51.416;6.678;2022-11-12T15:51:22;15.48;;;9.73;;
50900;SDS011;36879;51.416;6.678;2022-11-12T15:53:48;29.17;;;13.73;;
50900;SDS011;36879;51.416;6.678;2022-11-12T15:56:15;45.60;;;20.90;;
50900;SDS011;36879;51.416;6.678;2022-11-12T15:58:42;43.85;;;19.48;;
50900;SDS011;36879;51.416;6.678;2022-11-12T16:01:09;36.03;;;17.40;;
50900;SDS011;36879;51.416;6.678;2022-11-12T16:03:35;32.50;;;18.42;;
50900;SDS011;36879;51.416;6.678;2022-11-12T16:06:01;35.72;;;17.13;;
50900;SDS011;36879;51.416;6.678;2022-11-12T16:08:27;38.47;;;16.15;;
50900;SDS011;36879;51.416;6.678;2022-11-12T16:10:53;33.22;;;13.02;;
50900;SDS011;36879;51.416;6.678;2022-11-12T16:13:24;23.67;;;12.15;;
50900;SDS011;36879;51.416;6.678;2022-11-12T16:15:51;27.50;;;12.73;;
50900;SDS011;36879;51.416;6.678;2022-11-12T16:18:17;22.50;;;12.63;;
50900;SDS011;36879;51.416;6.678;2022-11-12T16:20:43;22.80;;;12.63;;
50900;SDS011;36879;51.416;6.678;2022-11-12T16:23:11;26.40;;;13.20;;
50900;SDS011;36879;51.416;6.678;2022-11-12T16:25:37;21.13;;;11.02;;
50900;SDS011;36879;51.416;6.678;2022-11-12T16:28:07;22.55;;;10.10;;
50900;SDS011;36879;51.416;6.678;2022-11-12T16:30:36;21.73;;;10.40;;
50900;SDS011;36879;51.416;6.678;2022-11-12T16:33:02;18.13;;;10.10;;
50900;SDS011;36879;51.416;6.678;2022-11-12T16:35:32;16.67;;;8.50;;
50900;SDS011;36879;51.416;6.678;2022-11-12T16:37:58;16.77;;;9.23;;
50900;SDS011;36879;51.416;6.678;2022-11-12T16:40:26;13.15;;;8.40;;
50900;SDS011;36879;51.416;6.678;2022-11-12T16:42:52;11.57;;;8.02;;
50900;SDS011;36879;51.416;6.678;2022-11-12T16:45:19;18.27;;;9.00;;